NY Terminal Aviation Weather Discussion (AFD) - Prepared: 740 AM EDT SAT OCT 25 2014
BRIEF HIGH PRESSURE WILL BE FOLLOWED BY A COLD FRONTAL PASSAGE
TONIGHT INTO SUNDAY. VFR CONDITIONS WITH A DRY FRONTAL PASSAGE
EXPECTED.

WINDS WILL GENERALLY BE NW 5-10 KT THIS MORNING...THEN INCREASING
10-15 KT WITH SOME GUSTS MID TO LATE AFTERNOON TO AROUND 20 KT
WHILE BACKING TO W-WSW. WINDS REMAIN AROUND 10 KT TONIGHT.

HIGH CONFIDENCE CATEGORY FORECAST BUT MODERATE CONFIDENCE WIND
FORECAST. UNCERTAINTY WITH END TIME OF GUSTS WHICH COULD LINGER A
FEW HOURS INTO THE EVENING.

5 Day General Aviation Outlook:

.OUTLOOK FOR 12Z SUNDAY THROUGH WEDNESDAY. 
.SUN-TUE...VFR. NW WINDS G25-30KT ON SUN-SUN EVE...HIGHEST NYC METRO.
.WED...MVFR OR LOWER POSSIBLE WITH CHANCE SHRA.


*************************************************************************************
KJFK Terminal Weather:

FTNA35 KJFK 251139 RRF
KJFK 251134Z 2512/2618 31008KT P6SM SKC
     FM251400 29011KT P6SM FEW050
     FM251800 25013G21KT P6SM SCT050
     FM252300 26015KT P6SM BKN050
     FM260900 29015G21KT P6SM SCT050
     FM261500 30019G28KT P6SM SCT050
KJFK Forecaster Comments Not Available at This Time
*************************************************************************************
KLGA Terminal Weather:
FTUS80 KLGA 251136 RRB
KLGA 251134Z 2512/2612 30009KT P6SM SKC
     FM251400 29011KT P6SM FEW050
     FM251800 25012G21KT P6SM SCT050
     FM252300 26014KT P6SM BKN050
     FM260900 29014G22KT P6SM SCT050
KLGA Forecaster Comments Not Available at This Time
*************************************************************************************
KEWR Terminal Weather:
FTUS80 KEWR 251136 RRA
KEWR 251134Z 2512/2618 27006KT P6SM SKC
     FM251400 27010KT P6SM FEW050
     FM251800 25012G22KT P6SM SCT050
     FM252300 25012KT P6SM BKN050
     FM260900 28012G20KT P6SM SCT050
     FM261500 28020G30KT P6SM SCT050
KEWR Forecaster Comments Not Available at This Time
*************************************************************************************
KTEB Terminal Weather:
FTUS80 KTEB 251136 RRD
KTEB 251134Z 2512/2612 VRB03KT P6SM SKC
     FM251400 28008KT P6SM FEW050
     FM251800 26010G17KT P6SM SCT050
     FM252300 26010KT P6SM BKN050
     FM260900 30010G16KT P6SM SCT050
KTEB Forecaster Comments Not Available at This Time
*************************************************************************************
KHPN Terminal Weather:
FTUS80 KHPN 251136 RRB
KHPN 251134Z 2512/2612 29006KT P6SM SKC
     FM251400 28010KT P6SM FEW050
     FM251800 25012G17KT P6SM SCT050
     FM252300 26010KT P6SM BKN050
     FM260900 29010G17KT P6SM SCT050 AMD NOT SKED
KHPN Forecaster Comments Not Available at This Time
*************************************************************************************
KISP Terminal Weather:
FTUS80 KISP 251136 RRB
KISP 251134Z 2512/2612 VRB04KT P6SM FEW250
     FM251400 28010KT P6SM SKC
     FM251800 25012G19KT P6SM FEW050
     FM260000 26012KT P6SM SCT050
     FM260900 29012G19KT P6SM SCT050
KISP Forecaster Comments Not Available at This Time

*************************************************************************************
5 Day General Outlook:

.OUTLOOK FOR 12Z SUNDAY THROUGH WEDNESDAY. 
.SUN-TUE...VFR. NW WINDS G25-30KT ON SUN-SUN EVE...HIGHEST NYC METRO.
.WED...MVFR OR LOWER POSSIBLE WITH CHANCE SHRA.


Click the Print Icon print icon below to print the briefing sheet